sensor_id;sensor_type;location;lat;lon;timestamp;pressure;altitude;pressure_sealevel;temperature;humidity
58092;BME280;43896;48.178;11.578;2023-05-23T00:02:00;95564.69;;;19.45;59.67
58092;BME280;43896;48.178;11.578;2023-05-23T00:04:26;95547.19;;;19.31;59.44
58092;BME280;43896;48.178;11.578;2023-05-23T00:06:53;95553.69;;;19.35;59.22
58092;BME280;43896;48.178;11.578;2023-05-23T00:09:18;95532.75;;;19.20;60.02
58092;BME280;43896;48.178;11.578;2023-05-23T00:11:44;95554.97;;;19.33;59.74
58092;BME280;43896;48.178;11.578;2023-05-23T00:14:11;95548.50;;;19.22;59.82
58092;BME280;43896;48.178;11.578;2023-05-23T00:16:38;95550.13;;;19.23;60.01
58092;BME280;43896;48.178;11.578;2023-05-23T00:19:05;95562.75;;;19.34;59.41
58092;BME280;43896;48.178;11.578;2023-05-23T00:21:30;95562.97;;;19.33;59.10
58092;BME280;43896;48.178;11.578;2023-05-23T00:23:57;95565.63;;;19.33;59.28
58092;BME280;43896;48.178;11.578;2023-05-23T00:26:22;95559.31;;;19.27;59.55
58092;BME280;43896;48.178;11.578;2023-05-23T00:28:48;95549.75;;;19.19;58.82
58092;BME280;43896;48.178;11.578;2023-05-23T00:31:13;95557.69;;;19.26;59.36
58092;BME280;43896;48.178;11.578;2023-05-23T00:33:39;95542.25;;;19.09;59.22
58092;BME280;43896;48.178;11.578;2023-05-23T00:36:04;95559.84;;;19.17;59.00
58092;BME280;43896;48.178;11.578;2023-05-23T00:38:30;95550.94;;;19.23;58.96
58092;BME280;43896;48.178;11.578;2023-05-23T00:40:55;95539.31;;;19.18;58.72
58092;BME280;43896;48.178;11.578;2023-05-23T00:43:20;95539.47;;;19.23;58.87
58092;BME280;43896;48.178;11.578;2023-05-23T00:45:47;95495.44;;;18.95;58.53
58092;BME280;43896;48.178;11.578;2023-05-23T00:48:13;95547.31;;;19.18;58.75
58092;BME280;43896;48.178;11.578;2023-05-23T00:50:39;95548.34;;;19.17;58.92
58092;BME280;43896;48.178;11.578;2023-05-23T00:53:05;95523.59;;;19.09;58.70
58092;BME280;43896;48.178;11.578;2023-05-23T00:55:31;95566.66;;;19.06;59.50
58092;BME280;43896;48.178;11.578;2023-05-23T00:57:56;95518.00;;;18.92;58.70
58092;BME280;43896;48.178;11.578;2023-05-23T01:00:24;95567.00;;;19.17;58.88
58092;BME280;43896;48.178;11.578;2023-05-23T01:02:50;95565.75;;;19.19;58.82
58092;BME280;43896;48.178;11.578;2023-05-23T01:05:16;95547.25;;;19.24;58.70
58092;BME280;43896;48.178;11.578;2023-05-23T01:07:45;95548.16;;;19.11;58.82
58092;BME280;43896;48.178;11.578;2023-05-23T01:10:12;95539.59;;;19.09;59.11
58092;BME280;43896;48.178;11.578;2023-05-23T01:12:55;95556.28;;;19.23;58.74
58092;BME280;43896;48.178;11.578;2023-05-23T01:18:17;95514.69;;;18.97;58.53
58092;BME280;43896;48.178;11.578;2023-05-23T01:20:54;95525.78;;;18.94;58.62
58092;BME280;43896;48.178;11.578;2023-05-23T01:29:19;95576.84;;;19.16;58.85
58092;BME280;43896;48.178;11.578;2023-05-23T01:31:48;95559.34;;;19.02;59.17
58092;BME280;43896;48.178;11.578;2023-05-23T01:34:18;95579.44;;;18.98;59.94
58092;BME280;43896;48.178;11.578;2023-05-23T01:36:43;95552.69;;;18.86;59.95
58092;BME280;43896;48.178;11.578;2023-05-23T01:39:09;95550.19;;;18.91;59.37
58092;BME280;43896;48.178;11.578;2023-05-23T01:41:35;95535.06;;;18.53;60.53
58092;BME280;43896;48.178;11.578;2023-05-23T01:44:01;95579.06;;;18.94;59.52
58092;BME280;43896;48.178;11.578;2023-05-23T01:46:27;95527.00;;;18.66;59.41
58092;BME280;43896;48.178;11.578;2023-05-23T01:48:54;95572.38;;;18.85;59.74
58092;BME280;43896;48.178;11.578;2023-05-23T01:51:21;95548.63;;;18.77;59.42
58092;BME280;43896;48.178;11.578;2023-05-23T01:53:48;95592.00;;;18.90;59.99
58092;BME280;43896;48.178;11.578;2023-05-23T01:56:15;95536.69;;;18.61;59.78
58092;BME280;43896;48.178;11.578;2023-05-23T01:58:41;95589.31;;;18.97;59.78
58092;BME280;43896;48.178;11.578;2023-05-23T02:01:08;95560.56;;;18.74;59.31
58092;BME280;43896;48.178;11.578;2023-05-23T02:03:34;95552.06;;;18.59;59.89
58092;BME280;43896;48.178;11.578;2023-05-23T02:05:59;95580.00;;;18.74;59.97
58092;BME280;43896;48.178;11.578;2023-05-23T02:08:25;95566.53;;;18.69;60.47
58092;BME280;43896;48.178;11.578;2023-05-23T02:10:50;95603.72;;;18.89;60.22
58092;BME280;43896;48.178;11.578;2023-05-23T02:13:15;95580.09;;;18.61;60.27
58092;BME280;43896;48.178;11.578;2023-05-23T02:15:41;95606.63;;;18.81;60.06
58092;BME280;43896;48.178;11.578;2023-05-23T02:18:06;95550.88;;;18.48;60.42
58092;BME280;43896;48.178;11.578;2023-05-23T02:20:31;95563.72;;;18.58;60.36
58092;BME280;43896;48.178;11.578;2023-05-23T02:22:57;95560.25;;;18.57;60.63
58092;BME280;43896;48.178;11.578;2023-05-23T02:25:22;95594.72;;;18.84;60.50
58092;BME280;43896;48.178;11.578;2023-05-23T02:27:47;95563.34;;;18.54;61.01
58092;BME280;43896;48.178;11.578;2023-05-23T02:30:13;95578.19;;;18.68;60.54
58092;BME280;43896;48.178;11.578;2023-05-23T02:32:38;95560.81;;;18.66;60.64
58092;BME280;43896;48.178;11.578;2023-05-23T02:35:04;95581.03;;;18.73;60.41
58092;BME280;43896;48.178;11.578;2023-05-23T02:37:30;95606.63;;;18.81;60.59
58092;BME280;43896;48.178;11.578;2023-05-23T02:39:55;95596.03;;;18.68;60.89
58092;BME280;43896;48.178;11.578;2023-05-23T02:42:21;95563.38;;;18.47;60.95
58092;BME280;43896;48.178;11.578;2023-05-23T02:44:46;95582.63;;;18.49;61.28
58092;BME280;43896;48.178;11.578;2023-05-23T02:47:12;95610.81;;;18.64;61.23
58092;BME280;43896;48.178;11.578;2023-05-23T02:49:37;95571.22;;;18.35;61.51
58092;BME280;43896;48.178;11.578;2023-05-23T02:52:03;95581.69;;;18.37;62.05
58092;BME280;43896;48.178;11.578;2023-05-23T02:54:28;95577.59;;;17.89;62.68
58092;BME280;43896;48.178;11.578;2023-05-23T02:56:53;95564.53;;;17.68;63.99
58092;BME280;43896;48.178;11.578;2023-05-23T02:59:20;95611.41;;;18.27;63.25
58092;BME280;43896;48.178;11.578;2023-05-23T03:01:46;95603.44;;;17.55;65.19
58092;BME280;43896;48.178;11.578;2023-05-23T03:04:11;95573.72;;;17.72;64.46
58092;BME280;43896;48.178;11.578;2023-05-23T03:06:38;95564.66;;;17.93;63.62
58092;BME280;43896;48.178;11.578;2023-05-23T03:09:04;95573.03;;;18.03;63.08
58092;BME280;43896;48.178;11.578;2023-05-23T03:11:29;95619.69;;;18.12;64.18
58092;BME280;43896;48.178;11.578;2023-05-23T03:13:55;95628.81;;;18.30;64.27
58092;BME280;43896;48.178;11.578;2023-05-23T03:16:23;95610.22;;;18.23;63.51
58092;BME280;43896;48.178;11.578;2023-05-23T03:18:49;95587.75;;;18.12;63.60
58092;BME280;43896;48.178;11.578;2023-05-23T03:21:14;95621.19;;;18.40;63.60
58092;BME280;43896;48.178;11.578;2023-05-23T03:23:39;95620.03;;;18.29;64.16
58092;BME280;43896;48.178;11.578;2023-05-23T03:26:05;95608.09;;;17.93;64.46
58092;BME280;43896;48.178;11.578;2023-05-23T03:28:31;95615.16;;;18.13;64.09
58092;BME280;43896;48.178;11.578;2023-05-23T03:30:57;95609.84;;;18.13;64.10
58092;BME280;43896;48.178;11.578;2023-05-23T03:33:22;95627.44;;;18.21;64.29
58092;BME280;43896;48.178;11.578;2023-05-23T03:35:47;95574.31;;;17.94;64.06
58092;BME280;43896;48.178;11.578;2023-05-23T03:38:13;95572.47;;;17.88;64.30
58092;BME280;43896;48.178;11.578;2023-05-23T03:40:38;95622.91;;;18.28;63.50
58092;BME280;43896;48.178;11.578;2023-05-23T03:43:05;95570.63;;;17.81;64.31
58092;BME280;43896;48.178;11.578;2023-05-23T03:45:31;95589.66;;;17.92;64.25
58092;BME280;43896;48.178;11.578;2023-05-23T03:47:57;95630.16;;;18.01;64.98
58092;BME280;43896;48.178;11.578;2023-05-23T03:50:23;95599.31;;;17.86;64.56
58092;BME280;43896;48.178;11.578;2023-05-23T03:52:48;95601.53;;;17.89;64.28
58092;BME280;43896;48.178;11.578;2023-05-23T03:55:13;95647.09;;;18.13;64.51
58092;BME280;43896;48.178;11.578;2023-05-23T03:57:39;95629.34;;;18.00;64.56
58092;BME280;43896;48.178;11.578;2023-05-23T04:00:05;95588.66;;;17.73;64.81
58092;BME280;43896;48.178;11.578;2023-05-23T04:02:36;95643.84;;;18.11;64.75
58092;BME280;43896;48.178;11.578;2023-05-23T04:05:02;95592.63;;;17.50;65.77
58092;BME280;43896;48.178;11.578;2023-05-23T04:07:27;95604.84;;;17.58;65.94
58092;BME280;43896;48.178;11.578;2023-05-23T04:09:52;95601.00;;;17.54;66.06
58092;BME280;43896;48.178;11.578;2023-05-23T04:12:18;95592.56;;;17.63;65.62
58092;BME280;43896;48.178;11.578;2023-05-23T04:14:45;95633.25;;;17.91;65.62
58092;BME280;43896;48.178;11.578;2023-05-23T04:17:11;95639.41;;;17.91;65.80
58092;BME280;43896;48.178;11.578;2023-05-23T04:19:37;95638.56;;;17.91;65.76
58092;BME280;43896;48.178;11.578;2023-05-23T04:22:02;95646.16;;;17.87;65.52
58092;BME280;43896;48.178;11.578;2023-05-23T04:24:28;95616.88;;;17.74;66.11
58092;BME280;43896;48.178;11.578;2023-05-23T04:26:53;95647.38;;;17.91;66.12
58092;BME280;43896;48.178;11.578;2023-05-23T04:29:20;95599.34;;;17.39;66.91
58092;BME280;43896;48.178;11.578;2023-05-23T04:31:46;95635.31;;;17.69;66.43
58092;BME280;43896;48.178;11.578;2023-05-23T04:34:11;95651.69;;;17.66;66.97
58092;BME280;43896;48.178;11.578;2023-05-23T04:36:37;95634.09;;;17.65;66.97
58092;BME280;43896;48.178;11.578;2023-05-23T04:39:04;95647.38;;;17.78;66.53
58092;BME280;43896;48.178;11.578;2023-05-23T04:41:29;95614.88;;;17.62;66.46
58092;BME280;43896;48.178;11.578;2023-05-23T04:43:55;95631.81;;;17.75;66.45
58092;BME280;43896;48.178;11.578;2023-05-23T04:46:22;95661.28;;;17.93;66.33
58092;BME280;43896;48.178;11.578;2023-05-23T04:48:54;95615.28;;;17.59;66.50
58092;BME280;43896;48.178;11.578;2023-05-23T04:51:20;95667.22;;;17.95;66.52
58092;BME280;43896;48.178;11.578;2023-05-23T04:53:47;95663.31;;;17.98;66.33
58092;BME280;43896;48.178;11.578;2023-05-23T04:56:14;95675.97;;;18.09;66.34
58092;BME280;43896;48.178;11.578;2023-05-23T04:58:39;95662.69;;;18.03;66.50
58092;BME280;43896;48.178;11.578;2023-05-23T05:01:06;95668.19;;;18.08;66.68
58092;BME280;43896;48.178;11.578;2023-05-23T05:03:33;95668.81;;;18.10;66.59
58092;BME280;43896;48.178;11.578;2023-05-23T05:05:59;95672.13;;;17.98;67.24
58092;BME280;43896;48.178;11.578;2023-05-23T05:08:24;95681.09;;;18.17;66.63
58092;BME280;43896;48.178;11.578;2023-05-23T05:10:50;95679.41;;;18.23;66.18
58092;BME280;43896;48.178;11.578;2023-05-23T05:13:15;95683.25;;;18.34;66.09
58092;BME280;43896;48.178;11.578;2023-05-23T05:15:40;95691.34;;;18.07;67.22
58092;BME280;43896;48.178;11.578;2023-05-23T05:18:06;95673.31;;;18.16;66.68
58092;BME280;43896;48.178;11.578;2023-05-23T05:20:31;95676.00;;;17.96;67.91
58092;BME280;43896;48.178;11.578;2023-05-23T05:23:00;95665.56;;;17.94;67.43
58092;BME280;43896;48.178;11.578;2023-05-23T05:25:25;95683.53;;;18.19;67.26
58092;BME280;43896;48.178;11.578;2023-05-23T05:27:51;95676.72;;;18.36;66.95
58092;BME280;43896;48.178;11.578;2023-05-23T05:30:17;95677.06;;;18.53;66.02
58092;BME280;43896;48.178;11.578;2023-05-23T05:32:42;95650.88;;;18.44;65.90
58092;BME280;43896;48.178;11.578;2023-05-23T05:35:10;95669.88;;;18.54;66.23
58092;BME280;43896;48.178;11.578;2023-05-23T05:37:38;95671.03;;;18.65;66.33
58092;BME280;43896;48.178;11.578;2023-05-23T05:40:03;95663.28;;;18.56;66.14
58092;BME280;43896;48.178;11.578;2023-05-23T05:42:31;95685.38;;;18.70;65.96
58092;BME280;43896;48.178;11.578;2023-05-23T05:44:56;95662.06;;;18.59;65.45
58092;BME280;43896;48.178;11.578;2023-05-23T05:47:21;95685.41;;;18.64;66.01
58092;BME280;43896;48.178;11.578;2023-05-23T05:49:47;95678.75;;;18.80;65.72
58092;BME280;43896;48.178;11.578;2023-05-23T05:52:12;95693.03;;;18.99;65.14
58092;BME280;43896;48.178;11.578;2023-05-23T05:54:37;95672.16;;;18.89;65.17
58092;BME280;43896;48.178;11.578;2023-05-23T05:57:03;95693.06;;;18.47;67.85
58092;BME280;43896;48.178;11.578;2023-05-23T05:59:28;95678.00;;;18.72;65.92
58092;BME280;43896;48.178;11.578;2023-05-23T06:01:53;95688.16;;;18.89;65.94
58092;BME280;43896;48.178;11.578;2023-05-23T06:04:19;95682.03;;;18.88;65.27
58092;BME280;43896;48.178;11.578;2023-05-23T06:06:44;95681.59;;;18.91;65.16
58092;BME280;43896;48.178;11.578;2023-05-23T06:09:09;95691.78;;;19.01;64.72
58092;BME280;43896;48.178;11.578;2023-05-23T06:11:35;95701.59;;;19.07;64.94
58092;BME280;43896;48.178;11.578;2023-05-23T06:14:03;95685.66;;;18.94;65.11
58092;BME280;43896;48.178;11.578;2023-05-23T06:16:29;95676.53;;;18.77;65.78
58092;BME280;43896;48.178;11.578;2023-05-23T06:18:54;95683.06;;;18.81;65.62
58092;BME280;43896;48.178;11.578;2023-05-23T06:21:19;95694.22;;;18.64;66.77
58092;BME280;43896;48.178;11.578;2023-05-23T06:23:44;95684.09;;;18.80;65.54
58092;BME280;43896;48.178;11.578;2023-05-23T06:26:10;95702.97;;;18.71;66.97
58092;BME280;43896;48.178;11.578;2023-05-23T06:28:38;95691.25;;;18.86;65.42
58092;BME280;43896;48.178;11.578;2023-05-23T06:31:04;95695.91;;;18.97;65.34
58092;BME280;43896;48.178;11.578;2023-05-23T06:33:30;95696.09;;;19.02;65.76
58092;BME280;43896;48.178;11.578;2023-05-23T06:35:55;95697.91;;;19.08;65.45
58092;BME280;43896;48.178;11.578;2023-05-23T06:38:20;95692.75;;;19.14;65.43
58092;BME280;43896;48.178;11.578;2023-05-23T06:40:46;95704.38;;;19.19;66.01
58092;BME280;43896;48.178;11.578;2023-05-23T06:43:11;95703.78;;;19.17;65.18
58092;BME280;43896;48.178;11.578;2023-05-23T06:45:36;95714.91;;;19.39;65.30
58092;BME280;43896;48.178;11.578;2023-05-23T06:48:02;95714.25;;;19.44;64.51
58092;BME280;43896;48.178;11.578;2023-05-23T06:50:28;95713.50;;;19.37;65.44
58092;BME280;43896;48.178;11.578;2023-05-23T06:52:53;95705.69;;;19.10;66.32
58092;BME280;43896;48.178;11.578;2023-05-23T06:55:19;95719.00;;;19.42;65.38
58092;BME280;43896;48.178;11.578;2023-05-23T06:57:44;95699.38;;;18.98;66.73
58092;BME280;43896;48.178;11.578;2023-05-23T07:00:11;95701.25;;;19.29;65.45
58092;BME280;43896;48.178;11.578;2023-05-23T07:02:37;95708.81;;;19.57;65.29
58092;BME280;43896;48.178;11.578;2023-05-23T07:05:03;95720.16;;;19.21;66.46
58092;BME280;43896;48.178;11.578;2023-05-23T07:07:28;95712.13;;;19.27;67.40
58092;BME280;43896;48.178;11.578;2023-05-23T07:09:54;95709.25;;;19.54;66.61
58092;BME280;43896;48.178;11.578;2023-05-23T07:12:19;95714.19;;;19.82;65.78
58092;BME280;43896;48.178;11.578;2023-05-23T07:14:44;95707.59;;;19.85;65.02
58092;BME280;43896;48.178;11.578;2023-05-23T07:17:10;95719.00;;;19.42;66.73
58092;BME280;43896;48.178;11.578;2023-05-23T07:19:36;95714.06;;;19.14;67.74
58092;BME280;43896;48.178;11.578;2023-05-23T07:22:01;95739.31;;;19.68;65.21
58092;BME280;43896;48.178;11.578;2023-05-23T07:24:27;95726.59;;;19.70;64.91
58092;BME280;43896;48.178;11.578;2023-05-23T07:26:52;95726.13;;;19.73;65.09
58092;BME280;43896;48.178;11.578;2023-05-23T07:29:17;95733.59;;;19.64;66.01
58092;BME280;43896;48.178;11.578;2023-05-23T07:31:43;95713.34;;;19.57;64.94
58092;BME280;43896;48.178;11.578;2023-05-23T07:34:08;95735.41;;;19.71;65.27
58092;BME280;43896;48.178;11.578;2023-05-23T07:36:33;95733.63;;;18.94;67.65
58092;BME280;43896;48.178;11.578;2023-05-23T07:39:00;95734.91;;;19.23;66.18
58092;BME280;43896;48.178;11.578;2023-05-23T07:41:25;95735.59;;;19.44;65.16
58092;BME280;43896;48.178;11.578;2023-05-23T07:43:51;95751.81;;;19.42;66.19
58092;BME280;43896;48.178;11.578;2023-05-23T07:46:16;95729.16;;;19.26;66.23
58092;BME280;43896;48.178;11.578;2023-05-23T07:48:41;95723.81;;;19.26;65.74
58092;BME280;43896;48.178;11.578;2023-05-23T07:51:07;95751.28;;;19.59;65.38
58092;BME280;43896;48.178;11.578;2023-05-23T07:53:32;95738.88;;;19.14;67.23
58092;BME280;43896;48.178;11.578;2023-05-23T07:55:57;95745.44;;;19.11;67.84
58092;BME280;43896;48.178;11.578;2023-05-23T07:58:23;95725.59;;;18.55;69.34
58092;BME280;43896;48.178;11.578;2023-05-23T08:00:49;95741.75;;;18.61;69.69
58092;BME280;43896;48.178;11.578;2023-05-23T08:03:14;95735.25;;;19.02;66.67
58092;BME280;43896;48.178;11.578;2023-05-23T08:05:41;95722.44;;;19.17;65.56
58092;BME280;43896;48.178;11.578;2023-05-23T08:08:06;95747.47;;;19.48;65.40
58092;BME280;43896;48.178;11.578;2023-05-23T08:10:31;95753.03;;;18.56;69.04
58092;BME280;43896;48.178;11.578;2023-05-23T08:12:58;95743.66;;;18.40;69.78
58092;BME280;43896;48.178;11.578;2023-05-23T08:15:24;95747.34;;;18.46;69.59
58092;BME280;43896;48.178;11.578;2023-05-23T08:17:50;95746.47;;;18.65;68.35
58092;BME280;43896;48.178;11.578;2023-05-23T08:20:15;95756.41;;;19.28;66.28
58092;BME280;43896;48.178;11.578;2023-05-23T08:22:41;95737.91;;;19.34;65.63
58092;BME280;43896;48.178;11.578;2023-05-23T08:25:06;95740.31;;;19.42;65.30
58092;BME280;43896;48.178;11.578;2023-05-23T08:27:32;95751.22;;;19.08;67.33
58092;BME280;43896;48.178;11.578;2023-05-23T08:29:58;95726.91;;;18.26;69.62
58092;BME280;43896;48.178;11.578;2023-05-23T08:32:23;95763.16;;;18.92;68.01
58092;BME280;43896;48.178;11.578;2023-05-23T08:34:49;95742.94;;;19.17;66.65
58092;BME280;43896;48.178;11.578;2023-05-23T08:37:14;95761.38;;;18.86;69.15
58092;BME280;43896;48.178;11.578;2023-05-23T08:39:39;95744.16;;;19.21;66.56
58092;BME280;43896;48.178;11.578;2023-05-23T08:42:05;95745.97;;;18.88;68.18
58092;BME280;43896;48.178;11.578;2023-05-23T08:44:31;95754.06;;;19.14;68.15
58092;BME280;43896;48.178;11.578;2023-05-23T08:47:02;95762.69;;;19.41;68.01
58092;BME280;43896;48.178;11.578;2023-05-23T08:49:29;95762.59;;;19.54;67.86
58092;BME280;43896;48.178;11.578;2023-05-23T08:52:00;95769.19;;;19.83;65.98
58092;BME280;43896;48.178;11.578;2023-05-23T08:54:26;95767.00;;;19.99;64.38
58092;BME280;43896;48.178;11.578;2023-05-23T08:56:53;95764.72;;;19.77;64.46
58092;BME280;43896;48.178;11.578;2023-05-23T08:59:19;95772.34;;;19.99;63.60
58092;BME280;43896;48.178;11.578;2023-05-23T09:01:46;95764.31;;;20.24;62.99
58092;BME280;43896;48.178;11.578;2023-05-23T09:04:12;95767.94;;;20.30;62.53
58092;BME280;43896;48.178;11.578;2023-05-23T09:06:37;95761.91;;;20.16;62.74
58092;BME280;43896;48.178;11.578;2023-05-23T09:09:03;95750.09;;;20.05;62.98
58092;BME280;43896;48.178;11.578;2023-05-23T09:11:28;95779.03;;;19.51;65.94
58092;BME280;43896;48.178;11.578;2023-05-23T09:13:54;95762.56;;;18.90;67.39
58092;BME280;43896;48.178;11.578;2023-05-23T09:16:20;95765.16;;;19.04;67.42
58092;BME280;43896;48.178;11.578;2023-05-23T09:18:45;95772.63;;;18.82;68.84
58092;BME280;43896;48.178;11.578;2023-05-23T09:21:12;95775.16;;;19.47;66.25
58092;BME280;43896;48.178;11.578;2023-05-23T09:23:39;95776.59;;;19.81;64.83
58092;BME280;43896;48.178;11.578;2023-05-23T09:26:06;95778.09;;;19.96;64.06
58092;BME280;43896;48.178;11.578;2023-05-23T09:28:32;95773.88;;;20.13;63.52
58092;BME280;43896;48.178;11.578;2023-05-23T09:31:05;95770.25;;;20.01;63.65
58092;BME280;43896;48.178;11.578;2023-05-23T09:33:48;95781.34;;;20.04;63.69
58092;BME280;43896;48.178;11.578;2023-05-23T09:36:17;95786.13;;;19.64;64.87
58092;BME280;43896;48.178;11.578;2023-05-23T09:38:44;95788.94;;;19.44;65.66
58092;BME280;43896;48.178;11.578;2023-05-23T09:41:10;95790.50;;;19.58;66.00
58092;BME280;43896;48.178;11.578;2023-05-23T09:43:48;95779.00;;;19.90;63.66
58092;BME280;43896;48.178;11.578;2023-05-23T09:46:13;95783.34;;;19.52;64.72
58092;BME280;43896;48.178;11.578;2023-05-23T09:48:39;95769.78;;;19.54;64.20
58092;BME280;43896;48.178;11.578;2023-05-23T09:51:08;95793.75;;;19.60;64.54
58092;BME280;43896;48.178;11.578;2023-05-23T09:53:34;95784.31;;;19.58;64.47
58092;BME280;43896;48.178;11.578;2023-05-23T09:56:01;95779.66;;;19.53;64.55
58092;BME280;43896;48.178;11.578;2023-05-23T09:58:27;95795.50;;;19.73;64.45
58092;BME280;43896;48.178;11.578;2023-05-23T10:00:58;95781.66;;;19.58;64.50
58092;BME280;43896;48.178;11.578;2023-05-23T10:03:32;95790.16;;;19.48;65.08
58092;BME280;43896;48.178;11.578;2023-05-23T10:06:14;95782.97;;;19.48;65.20
58092;BME280;43896;48.178;11.578;2023-05-23T10:08:47;95782.00;;;19.36;65.99
58092;BME280;43896;48.178;11.578;2023-05-23T10:13:43;95781.66;;;19.58;65.49
58092;BME280;43896;48.178;11.578;2023-05-23T10:16:14;95766.47;;;18.81;68.56
58092;BME280;43896;48.178;11.578;2023-05-23T10:18:43;95779.69;;;19.08;67.23
58092;BME280;43896;48.178;11.578;2023-05-23T10:21:18;95784.94;;;19.60;66.01
58092;BME280;43896;48.178;11.578;2023-05-23T10:23:49;95788.06;;;19.82;65.24
58092;BME280;43896;48.178;11.578;2023-05-23T10:26:15;95775.25;;;20.16;64.04
58092;BME280;43896;48.178;11.578;2023-05-23T10:28:41;95775.47;;;20.58;62.10
58092;BME280;43896;48.178;11.578;2023-05-23T10:31:09;95765.63;;;20.77;61.46
58092;BME280;43896;48.178;11.578;2023-05-23T10:33:43;95765.22;;;20.92;61.13
58092;BME280;43896;48.178;11.578;2023-05-23T10:36:18;95759.25;;;19.91;64.42
58092;BME280;43896;48.178;11.578;2023-05-23T10:38:54;95774.75;;;19.11;66.47
58092;BME280;43896;48.178;11.578;2023-05-23T10:41:30;95776.22;;;19.07;66.98
58092;BME280;43896;48.178;11.578;2023-05-23T10:46:58;95777.56;;;18.85;68.61
58092;BME280;43896;48.178;11.578;2023-05-23T10:49:54;95779.31;;;19.68;66.33
58092;BME280;43896;48.178;11.578;2023-05-23T10:52:19;95760.41;;;20.82;62.38
58092;BME280;43896;48.178;11.578;2023-05-23T10:54:52;95758.19;;;21.40;61.33
58092;BME280;43896;48.178;11.578;2023-05-23T10:57:19;95760.66;;;21.95;56.19
58092;BME280;43896;48.178;11.578;2023-05-23T10:59:45;95758.34;;;22.46;55.60
58092;BME280;43896;48.178;11.578;2023-05-23T11:02:12;95746.59;;;22.88;54.50
58092;BME280;43896;48.178;11.578;2023-05-23T11:04:39;95760.06;;;23.16;51.74
58092;BME280;43896;48.178;11.578;2023-05-23T11:07:04;95753.34;;;23.31;53.22
58092;BME280;43896;48.178;11.578;2023-05-23T11:09:30;95742.09;;;23.17;52.14
58092;BME280;43896;48.178;11.578;2023-05-23T11:11:59;95746.91;;;23.61;50.57
58092;BME280;43896;48.178;11.578;2023-05-23T11:17:17;95739.81;;;22.97;54.16
58092;BME280;43896;48.178;11.578;2023-05-23T11:20:00;95761.28;;;22.97;51.64
58092;BME280;43896;48.178;11.578;2023-05-23T11:22:27;95746.38;;;22.89;52.56
58092;BME280;43896;48.178;11.578;2023-05-23T11:24:54;95719.28;;;22.62;52.36
58092;BME280;43896;48.178;11.578;2023-05-23T11:27:36;95745.78;;;22.87;51.63
58092;BME280;43896;48.178;11.578;2023-05-23T11:30:10;95735.31;;;23.43;50.90
58092;BME280;43896;48.178;11.578;2023-05-23T11:32:37;95733.78;;;22.49;53.91
58092;BME280;43896;48.178;11.578;2023-05-23T11:35:07;95733.16;;;22.59;53.95
58092;BME280;43896;48.178;11.578;2023-05-23T11:37:33;95729.38;;;23.41;50.72
58092;BME280;43896;48.178;11.578;2023-05-23T11:39:59;95727.22;;;23.72;49.42
58092;BME280;43896;48.178;11.578;2023-05-23T11:42:44;95732.72;;;23.48;51.60
58092;BME280;43896;48.178;11.578;2023-05-23T11:45:10;95718.19;;;22.87;52.06
58092;BME280;43896;48.178;11.578;2023-05-23T11:47:40;95707.16;;;22.71;53.43
58092;BME280;43896;48.178;11.578;2023-05-23T11:50:05;95713.25;;;22.55;52.75
58092;BME280;43896;48.178;11.578;2023-05-23T11:52:31;95728.31;;;22.44;53.82
58092;BME280;43896;48.178;11.578;2023-05-23T11:55:00;95709.41;;;22.27;54.58
58092;BME280;43896;48.178;11.578;2023-05-23T11:57:25;95695.16;;;22.62;53.54
58092;BME280;43896;48.178;11.578;2023-05-23T11:59:51;95708.38;;;22.40;53.93
58092;BME280;43896;48.178;11.578;2023-05-23T12:02:16;95723.28;;;22.00;54.35
58092;BME280;43896;48.178;11.578;2023-05-23T12:04:42;95729.13;;;21.97;55.31
58092;BME280;43896;48.178;11.578;2023-05-23T12:07:07;95728.31;;;21.43;56.87
58092;BME280;43896;48.178;11.578;2023-05-23T12:09:43;95718.63;;;21.84;56.07
58092;BME280;43896;48.178;11.578;2023-05-23T12:12:09;95724.47;;;22.16;55.47
58092;BME280;43896;48.178;11.578;2023-05-23T12:14:34;95705.47;;;22.41;53.60
58092;BME280;43896;48.178;11.578;2023-05-23T12:16:59;95716.63;;;23.31;52.14
58092;BME280;43896;48.178;11.578;2023-05-23T12:19:25;95716.53;;;23.77;50.87
58092;BME280;43896;48.178;11.578;2023-05-23T12:21:51;95714.47;;;23.04;51.41
58092;BME280;43896;48.178;11.578;2023-05-23T12:24:18;95695.66;;;22.88;51.20
58092;BME280;43896;48.178;11.578;2023-05-23T12:26:48;95711.56;;;23.35;52.46
58092;BME280;43896;48.178;11.578;2023-05-23T12:29:14;95732.34;;;22.58;54.26
58092;BME280;43896;48.178;11.578;2023-05-23T12:31:40;95733.66;;;21.97;55.89
58092;BME280;43896;48.178;11.578;2023-05-23T12:34:05;95736.56;;;21.71;55.55
58092;BME280;43896;48.178;11.578;2023-05-23T12:36:31;95718.28;;;21.38;57.14
58092;BME280;43896;48.178;11.578;2023-05-23T12:39:03;95742.28;;;21.14;56.89
58092;BME280;43896;48.178;11.578;2023-05-23T12:41:31;95715.16;;;21.41;55.77
58092;BME280;43896;48.178;11.578;2023-05-23T12:43:56;95722.34;;;22.06;54.63
58092;BME280;43896;48.178;11.578;2023-05-23T12:46:24;95723.44;;;22.81;54.60
58092;BME280;43896;48.178;11.578;2023-05-23T12:48:49;95725.28;;;23.67;51.52
58092;BME280;43896;48.178;11.578;2023-05-23T12:51:15;95708.34;;;23.84;49.52
58092;BME280;43896;48.178;11.578;2023-05-23T12:53:41;95738.69;;;23.21;52.61
58092;BME280;43896;48.178;11.578;2023-05-23T12:56:07;95729.44;;;22.60;53.53
58092;BME280;43896;48.178;11.578;2023-05-23T12:58:32;95744.72;;;22.24;55.34
58092;BME280;43896;48.178;11.578;2023-05-23T13:01:00;95736.56;;;22.19;55.42
58092;BME280;43896;48.178;11.578;2023-05-23T13:03:25;95735.03;;;22.99;53.39
58092;BME280;43896;48.178;11.578;2023-05-23T13:05:51;95724.00;;;23.41;51.98